createdAt,value
2018-09-06T00:00:02.775Z,71.85
2018-09-06T00:01:02.761Z,71.85
2018-09-06T00:02:02.745Z,72.05
2018-09-06T00:03:02.732Z,72.63
2018-09-06T00:04:02.721Z,71.85
2018-09-06T00:05:02.833Z,72.33
2018-09-06T00:06:02.697Z,72.24
2018-09-06T00:07:02.689Z,72.05
2018-09-06T00:08:02.677Z,72.24
2018-09-06T00:09:02.668Z,72.91
2018-09-06T00:10:02.653Z,72.53
2018-09-06T00:11:02.639Z,72.53
2018-09-06T00:12:02.627Z,72.14
2018-09-06T00:13:02.617Z,72.72
2018-09-06T00:14:02.605Z,72.91
2018-09-06T00:15:02.593Z,72.91
2018-09-06T00:16:02.591Z,73.20
2018-09-06T00:17:02.570Z,73.39
2018-09-06T00:18:02.560Z,72.91
2018-09-06T00:19:02.546Z,73.10
2018-09-06T00:20:02.532Z,74.07
2018-09-06T00:21:02.521Z,73.78
2018-09-06T00:22:02.518Z,74.74
2018-09-06T00:23:02.499Z,74.61
2018-09-06T00:24:02.486Z,75.03
2018-09-06T00:25:02.479Z,75.67
2018-09-06T00:26:02.513Z,75.57
2018-09-06T00:27:02.454Z,75.57
2018-09-06T00:28:02.439Z,75.96
2018-09-06T00:29:02.429Z,76.25
2018-09-06T00:30:02.417Z,75.76
2018-09-06T00:31:02.406Z,76.06
2018-09-06T00:32:02.401Z,75.57
2018-09-06T00:33:02.384Z,75.76
2018-09-06T00:34:02.371Z,75.76
2018-09-06T00:35:02.364Z,75.67
2018-09-06T00:36:02.351Z,76.06
2018-09-06T00:37:02.334Z,76.06
2018-09-06T00:38:02.324Z,76.63
2018-09-06T00:39:02.317Z,76.63
2018-09-06T00:40:02.304Z,76.44
2018-09-06T00:41:02.289Z,77.01
2018-09-06T00:42:02.278Z,77.50
2018-09-06T00:43:02.270Z,77.50
2018-09-06T00:44:02.257Z,77.31
2018-09-06T00:45:02.242Z,77.01
2018-09-06T00:46:02.231Z,77.31
2018-09-06T00:47:02.225Z,77.31
2018-09-06T00:48:02.208Z,77.21
2018-09-06T00:49:02.192Z,77.50
2018-09-06T00:50:02.183Z,77.40
2018-09-06T00:51:02.170Z,77.50
2018-09-06T00:52:02.160Z,77.11
2018-09-06T00:53:02.146Z,77.31
2018-09-06T00:54:02.135Z,77.59
2018-09-06T00:55:02.124Z,78.17
2018-09-06T00:56:02.109Z,77.50
2018-09-06T00:57:02.098Z,77.88
2018-09-06T00:58:02.087Z,77.78
2018-09-06T00:59:02.075Z,77.98
2018-09-06T01:00:02.064Z,77.98
2018-09-06T01:01:02.053Z,78.36
2018-09-06T01:02:02.041Z,77.40
2018-09-06T01:03:02.027Z,77.84
2018-09-06T01:04:02.015Z,78.23
2018-09-06T01:05:02.004Z,77.56
2018-09-06T01:06:01.999Z,78.23
2018-09-06T01:07:01.980Z,78.33
2018-09-06T01:08:01.968Z,78.71
2018-09-06T01:09:01.960Z,78.52
2018-09-06T01:10:01.952Z,79.38
2018-09-06T01:11:01.934Z,79.58
2018-09-06T01:12:01.920Z,78.81
2018-09-06T01:13:01.909Z,79.10
2018-09-06T01:14:01.898Z,78.90
2018-09-06T01:15:01.891Z,78.90
2018-09-06T01:16:01.875Z,79.19
2018-09-06T01:17:01.861Z,79.48
2018-09-06T01:18:01.849Z,79.48
2018-09-06T01:19:01.841Z,79.38
2018-09-06T01:20:01.824Z,79.58
2018-09-06T01:21:01.814Z,79.67
2018-09-06T01:22:01.801Z,79.58
2018-09-06T01:23:01.791Z,79.00
2018-09-06T01:24:01.776Z,79.58
2018-09-06T01:25:01.765Z,79.67
2018-09-06T01:26:01.757Z,79.58
2018-09-06T01:27:01.740Z,80.44
2018-09-06T01:28:01.729Z,80.35
2018-09-06T01:29:01.716Z,80.88
2018-09-06T01:30:01.709Z,80.63
2018-09-06T01:31:01.698Z,80.83
2018-09-06T01:32:01.680Z,80.63
2018-09-06T01:33:01.668Z,80.73
2018-09-06T01:34:01.661Z,80.06
2018-09-06T01:35:01.643Z,80.35
2018-09-06T01:36:01.633Z,79.96
2018-09-06T01:37:01.630Z,80.63
2018-09-06T01:38:01.612Z,79.48
2018-09-06T01:39:01.605Z,79.38
2018-09-06T01:40:01.586Z,80.30
2018-09-06T01:41:01.576Z,80.30
2018-09-06T01:42:01.562Z,81.37
2018-09-06T01:43:01.549Z,81.75
2018-09-06T01:44:01.542Z,82.71
2018-09-06T01:45:01.526Z,83.48
2018-09-06T01:46:01.516Z,83.00
2018-09-06T01:47:01.501Z,83.19
2018-09-06T01:48:01.490Z,83.09
2018-09-06T01:49:01.482Z,82.90
2018-09-06T01:50:01.463Z,83.67
2018-09-06T01:51:01.452Z,82.71
2018-09-06T01:52:01.441Z,83.29
2018-09-06T01:53:01.428Z,82.32
2018-09-06T01:54:01.415Z,82.90
2018-09-06T01:55:01.402Z,83.19
2018-09-06T01:56:01.398Z,83.19
2018-09-06T01:57:01.380Z,83.00
2018-09-06T01:58:01.369Z,83.09
2018-09-06T01:59:01.356Z,83.58
2018-09-06T02:00:01.343Z,83.00
2018-09-06T02:01:01.328Z,83.67
2018-09-06T02:02:01.318Z,83.48
2018-09-06T02:03:01.307Z,83.48
2018-09-06T02:04:01.292Z,83.67
2018-09-06T02:05:01.280Z,83.29
2018-09-06T02:06:01.266Z,83.77
2018-09-06T02:07:01.256Z,83.77
2018-09-06T02:08:01.245Z,84.06
2018-09-06T02:09:01.231Z,83.77
2018-09-06T02:10:01.219Z,84.25
2018-09-06T02:11:01.208Z,84.25
2018-09-06T02:12:01.196Z,84.06
2018-09-06T02:13:01.184Z,84.06
2018-09-06T02:14:01.168Z,83.96
2018-09-06T02:15:01.158Z,83.58
2018-09-06T02:16:01.143Z,83.58
2018-09-06T02:17:01.132Z,84.25
2018-09-06T02:18:01.120Z,84.25
2018-09-06T02:19:01.107Z,84.16
2018-09-06T02:20:01.100Z,83.77
2018-09-06T02:21:01.084Z,83.96
2018-09-06T02:22:01.070Z,84.06
2018-09-06T02:23:01.062Z,84.16
2018-09-06T02:24:01.043Z,84.25
2018-09-06T02:25:01.032Z,84.06
2018-09-06T02:26:01.021Z,84.16
2018-09-06T02:27:01.011Z,84.16
2018-09-06T02:28:00.995Z,83.77
2018-09-06T02:29:00.983Z,84.16
2018-09-06T02:30:00.973Z,84.34
2018-09-06T02:31:00.962Z,84.63
2018-09-06T02:32:00.948Z,84.63
2018-09-06T02:33:00.935Z,84.83
2018-09-06T02:34:00.922Z,84.83
2018-09-06T02:35:00.912Z,85.31
2018-09-06T02:36:00.907Z,85.31
2018-09-06T02:37:00.886Z,84.63
2018-09-06T02:38:00.874Z,84.73
2018-09-06T02:39:00.862Z,85.02
2018-09-06T02:40:00.850Z,83.96
2018-09-06T02:41:00.838Z,84.34
2018-09-06T02:42:00.825Z,84.25
2018-09-06T02:43:00.812Z,84.83
2018-09-06T02:44:00.800Z,84.83
2018-09-06T02:45:00.786Z,84.83
2018-09-06T02:46:00.775Z,84.73
2018-09-06T02:47:00.766Z,84.34
2018-09-06T02:48:00.749Z,85.02
2018-09-06T02:49:00.736Z,84.83
2018-09-06T02:50:00.725Z,84.92
2018-09-06T02:51:00.717Z,85.31
2018-09-06T02:52:00.700Z,85.31
2018-09-06T02:53:00.689Z,85.02
2018-09-06T02:54:00.729Z,85.02
2018-09-06T02:55:00.663Z,84.73
2018-09-06T02:56:00.652Z,84.63
2018-09-06T02:57:00.638Z,85.40
2018-09-06T02:58:00.630Z,85.69
2018-09-06T02:59:00.614Z,86.27
2018-09-06T03:00:00.603Z,85.78
2018-09-06T03:01:00.589Z,85.78
2018-09-06T03:02:00.580Z,85.31
2018-09-06T03:03:00.570Z,86.08
2018-09-06T03:04:00.556Z,86.13
2018-09-06T03:05:00.551Z,85.98
2018-09-06T03:06:00.526Z,86.13
2018-09-06T03:07:00.515Z,86.22
2018-09-06T03:08:00.505Z,86.61
2018-09-06T03:09:00.489Z,87.09
2018-09-06T03:10:00.478Z,86.61
2018-09-06T03:11:00.465Z,87.38
2018-09-06T03:12:00.453Z,86.99
2018-09-06T03:13:00.442Z,86.90
2018-09-06T03:14:00.427Z,87.09
2018-09-06T03:15:00.419Z,86.61
2018-09-06T03:16:00.400Z,86.80
2018-09-06T03:17:00.394Z,86.71
2018-09-06T03:18:00.387Z,87.19
2018-09-06T03:19:00.367Z,87.19
2018-09-06T03:20:00.367Z,87.29
2018-09-06T03:21:00.341Z,86.90
2018-09-06T03:22:00.328Z,87.29
2018-09-06T03:23:00.321Z,87.29
2018-09-06T03:24:00.303Z,87.19
2018-09-06T03:25:00.289Z,87.19
2018-09-06T03:26:00.277Z,87.29
2018-09-06T03:27:00.266Z,87.38
2018-09-06T03:28:00.257Z,87.29
2018-09-06T03:29:00.241Z,87.29
2018-09-06T03:30:00.232Z,87.09
2018-09-06T03:31:00.217Z,87.09
2018-09-06T03:32:00.202Z,86.80
2018-09-06T03:33:00.191Z,87.76
2018-09-06T03:34:00.180Z,87.76
2018-09-06T03:35:00.170Z,87.76
2018-09-06T03:36:00.279Z,87.57
2018-09-06T03:37:00.140Z,87.67
2018-09-06T03:38:00.128Z,87.29
2018-09-06T03:39:00.115Z,87.96
2018-09-06T03:40:00.105Z,87.76
2018-09-06T03:41:00.091Z,87.67
2018-09-06T03:42:00.078Z,87.96
2018-09-06T03:43:00.076Z,88.34
2018-09-06T03:44:00.056Z,87.76
2018-09-06T03:45:00.041Z,87.76
2018-09-06T03:46:00.027Z,88.24
2018-09-06T03:47:00.015Z,87.57
2018-09-06T03:48:00.009Z,87.38
2018-09-06T03:48:59.990Z,88.39
2018-09-06T03:49:59.980Z,88.73
2018-09-06T03:50:59.967Z,88.92
2018-09-06T03:51:59.950Z,88.53
2018-09-06T03:52:59.945Z,88.49
2018-09-06T03:53:59.932Z,88.39
2018-09-06T03:54:59.912Z,88.82
2018-09-06T03:55:59.902Z,88.87
2018-09-06T03:56:59.893Z,88.78
2018-09-06T03:57:59.877Z,88.78
2018-09-06T03:58:59.862Z,88.49
2018-09-06T03:59:59.851Z,88.30
2018-09-06T04:00:59.854Z,87.24
2018-09-06T04:01:59.826Z,88.30
2018-09-06T04:02:59.813Z,88.49
2018-09-06T04:03:59.798Z,88.39
2018-09-06T04:04:59.785Z,88.59
2018-09-06T04:05:59.775Z,88.30
2018-09-06T04:06:59.761Z,88.68
2018-09-06T04:07:59.749Z,88.68
2018-09-06T04:08:59.740Z,87.72
2018-09-06T04:09:59.724Z,87.34
2018-09-06T04:10:59.710Z,88.10
2018-09-06T04:11:59.697Z,88.30
2018-09-06T04:12:59.685Z,88.20
2018-09-06T04:13:59.671Z,88.78
2018-09-06T04:14:59.659Z,88.78
2018-09-06T04:15:59.645Z,89.26
2018-09-06T04:16:59.635Z,88.97
2018-09-06T04:17:59.625Z,88.68
2018-09-06T04:18:59.608Z,89.07
2018-09-06T04:19:59.600Z,89.07
2018-09-06T04:20:59.582Z,89.07
2018-09-06T04:21:59.570Z,88.97
2018-09-06T04:22:59.561Z,89.16
2018-09-06T04:23:59.549Z,89.07
2018-09-06T04:24:59.537Z,90.12
2018-09-06T04:25:59.518Z,89.64
2018-09-06T04:26:59.522Z,89.93
2018-09-06T04:27:59.494Z,89.74
2018-09-06T04:28:59.487Z,89.07
2018-09-06T04:29:59.468Z,88.78
2018-09-06T04:30:59.459Z,89.64
2018-09-06T04:31:59.442Z,89.54
2018-09-06T04:32:59.428Z,89.64
2018-09-06T04:33:59.418Z,89.74
2018-09-06T04:34:59.404Z,89.54
2018-09-06T04:35:59.448Z,88.87
2018-09-06T04:36:59.381Z,88.87
2018-09-06T04:37:59.370Z,88.49
2018-09-06T04:38:59.358Z,88.39
2018-09-06T04:39:59.339Z,87.72
2018-09-06T04:40:59.327Z,87.76
2018-09-06T04:41:59.312Z,87.43
2018-09-06T04:42:59.301Z,87.67
2018-09-06T04:43:59.287Z,88.44
2018-09-06T04:44:59.276Z,88.53
2018-09-06T04:45:59.263Z,88.59
2018-09-06T04:46:59.251Z,88.78
2018-09-06T04:47:59.241Z,89.07
2018-09-06T04:48:59.223Z,89.26
2018-09-06T04:49:59.211Z,89.30
2018-09-06T04:50:59.203Z,89.01
2018-09-06T04:51:59.189Z,89.21
2018-09-06T04:52:59.175Z,88.97
2018-09-06T04:53:59.163Z,89.16
2018-09-06T04:54:59.149Z,88.97
2018-09-06T04:55:59.137Z,88.78
2018-09-06T04:56:59.123Z,88.49
2018-09-06T04:57:59.110Z,88.68
2018-09-06T04:58:59.101Z,89.11
2018-09-06T04:59:59.086Z,89.21
2018-09-06T05:00:59.080Z,88.82
2018-09-06T05:01:59.058Z,89.21
2018-09-06T05:02:59.047Z,89.16
2018-09-06T05:03:59.032Z,89.16
2018-09-06T05:04:59.020Z,89.26
2018-09-06T05:05:59.009Z,89.16
2018-09-06T05:06:59.009Z,88.97
2018-09-06T05:07:58.983Z,89.30
2018-09-06T05:08:58.971Z,89.78
2018-09-06T05:09:58.958Z,88.82
2018-09-06T05:10:58.950Z,88.63
2018-09-06T05:11:58.934Z,89.16
2018-09-06T05:12:58.923Z,88.73
2018-09-06T05:13:58.905Z,88.82
2018-09-06T05:14:58.897Z,88.82
2018-09-06T05:15:58.884Z,90.07
2018-09-06T05:16:58.868Z,89.01
2018-09-06T05:17:58.855Z,88.92
2018-09-06T05:18:58.843Z,88.92
2018-09-06T05:19:58.830Z,89.30
2018-09-06T05:20:58.817Z,88.92
2018-09-06T05:21:58.813Z,89.21
2018-09-06T05:22:58.795Z,88.34
2018-09-06T05:23:58.779Z,88.34
2018-09-06T05:24:58.765Z,88.53
2018-09-06T05:25:58.756Z,88.63
2018-09-06T05:26:58.740Z,88.34
2018-09-06T05:27:58.727Z,87.67
2018-09-06T05:28:58.717Z,87.48
2018-09-06T05:29:58.710Z,87.19
2018-09-06T05:30:58.692Z,86.80
2018-09-06T05:31:58.679Z,87.38
2018-09-06T05:32:58.667Z,87.19
2018-09-06T05:33:58.651Z,87.29
2018-09-06T05:34:58.647Z,87.13
2018-09-06T05:35:58.633Z,86.75
2018-09-06T05:36:58.622Z,86.08
2018-09-06T05:37:58.603Z,85.98
2018-09-06T05:38:58.590Z,85.78
2018-09-06T05:39:58.578Z,86.08
2018-09-06T05:40:58.566Z,86.18
2018-09-06T05:41:58.556Z,86.27
2018-09-06T05:42:58.546Z,86.27
2018-09-06T05:43:58.529Z,85.60
2018-09-06T05:44:58.520Z,85.78
2018-09-06T05:45:58.505Z,85.60
2018-09-06T05:46:58.501Z,85.60
2018-09-06T05:47:58.479Z,85.98
2018-09-06T05:48:58.469Z,86.08
2018-09-06T05:49:58.456Z,86.18
2018-09-06T05:50:58.444Z,85.60
2018-09-06T05:51:58.431Z,85.50
2018-09-06T05:52:58.422Z,85.78
2018-09-06T05:53:58.410Z,85.88
2018-09-06T05:54:58.400Z,86.36
2018-09-06T05:55:58.385Z,85.50
2018-09-06T05:56:58.372Z,84.54
2018-09-06T05:57:58.411Z,84.06
2018-09-06T05:58:58.345Z,84.58
2018-09-06T05:59:58.395Z,84.25
2018-09-06T06:00:58.320Z,83.14
2018-09-06T06:01:58.310Z,83.58
2018-09-06T06:02:58.304Z,83.29
2018-09-06T06:03:58.288Z,83.96
2018-09-06T06:04:58.270Z,84.29
2018-09-06T06:05:58.268Z,84.29
2018-09-06T06:06:58.259Z,83.91
2018-09-06T06:07:58.238Z,84.29
2018-09-06T06:08:58.229Z,84.00
2018-09-06T06:09:58.214Z,83.86
2018-09-06T06:10:58.200Z,84.73
2018-09-06T06:11:58.262Z,84.73
2018-09-06T06:12:58.179Z,85.84
2018-09-06T06:13:58.165Z,86.27
2018-09-06T06:14:58.160Z,86.56
2018-09-06T06:15:58.198Z,86.80
2018-09-06T06:16:58.137Z,88.06
2018-09-06T06:17:58.114Z,90.12
2018-09-06T06:18:58.103Z,89.93
2018-09-06T06:19:58.160Z,90.07
2018-09-06T06:20:58.076Z,90.07
2018-09-06T06:21:58.071Z,90.03
2018-09-06T06:22:58.051Z,90.07
2018-09-06T06:23:58.044Z,90.07
2018-09-06T06:24:58.026Z,90.26
2018-09-06T06:25:58.085Z,89.50
2018-09-06T06:26:58.004Z,89.69
2018-09-06T06:27:57.991Z,89.98
2018-09-06T06:28:57.986Z,89.30
2018-09-06T06:29:57.966Z,88.63
2018-09-06T06:30:57.955Z,88.53
2018-09-06T06:31:57.983Z,88.24
2018-09-06T06:32:57.931Z,89.21
2018-09-06T06:33:57.992Z,89.01
2018-09-06T06:34:57.907Z,89.11
2018-09-06T06:35:57.891Z,90.17
2018-09-06T06:36:57.881Z,89.98
2018-09-06T06:37:57.879Z,89.78
2018-09-06T06:38:57.863Z,89.69
2018-09-06T06:39:57.884Z,89.25
2018-09-06T06:40:57.832Z,88.19
2018-09-06T06:41:57.821Z,88.00
2018-09-06T06:42:57.814Z,86.99
2018-09-06T06:43:57.798Z,87.27
2018-09-06T06:44:57.785Z,86.60
2018-09-06T06:45:57.775Z,86.69
2018-09-06T06:46:57.760Z,86.07
2018-09-06T06:47:57.759Z,84.72
2018-09-06T06:48:57.754Z,84.97
2018-09-06T06:49:57.729Z,85.16
2018-09-06T06:50:57.715Z,84.81
2018-09-06T06:51:57.700Z,85.10
2018-09-06T06:52:57.689Z,84.81
2018-09-06T06:53:57.681Z,84.09
2018-09-06T06:54:57.666Z,83.22
2018-09-06T06:55:57.663Z,80.56
2018-09-06T06:56:57.648Z,78.48
2018-09-06T06:57:57.632Z,76.59
2018-09-06T06:58:57.623Z,75.53
2018-09-06T06:59:57.615Z,75.62
2018-09-06T07:00:57.663Z,76.17
2018-09-06T07:01:57.589Z,77.13
2018-09-06T07:02:57.583Z,77.71
2018-09-06T07:03:57.572Z,76.59
2018-09-06T07:04:57.560Z,76.10
2018-09-06T07:05:57.551Z,74.60
2018-09-06T07:06:57.615Z,74.21
2018-09-06T07:07:57.530Z,73.89
2018-09-06T07:08:57.524Z,74.47
2018-09-06T07:09:57.514Z,76.50
2018-09-06T07:10:57.501Z,75.92
2018-09-06T07:11:57.498Z,74.95
2018-09-06T07:12:57.481Z,74.47
2018-09-06T07:13:57.472Z,75.47
2018-09-06T07:14:57.466Z,74.12
2018-09-06T07:15:57.452Z,72.13
2018-09-06T07:16:57.443Z,68.59
2018-09-06T07:17:57.438Z,68.14
2018-09-06T07:18:57.431Z,67.66
2018-09-06T07:19:57.415Z,66.14
2018-09-06T07:20:57.409Z,66.14
2018-09-06T07:21:57.400Z,65.79
2018-09-06T07:22:57.391Z,64.95
2018-09-06T07:23:57.395Z,63.59
2018-09-06T07:24:57.385Z,63.34
2018-09-06T07:25:57.369Z,64.85
2018-09-06T07:26:57.366Z,65.27
2018-09-06T07:27:57.355Z,64.50
2018-09-06T07:28:57.346Z,65.66
2018-09-06T07:29:57.338Z,66.14
2018-09-06T07:30:57.329Z,66.91
2018-09-06T07:31:57.322Z,66.78
2018-09-06T07:32:57.314Z,67.85
2018-09-06T07:33:57.309Z,68.14
2018-09-06T07:34:57.308Z,67.59
2018-09-06T07:35:57.295Z,66.91
2018-09-06T07:36:57.287Z,67.11
2018-09-06T07:37:57.277Z,65.98
2018-09-06T07:38:57.277Z,66.37
2018-09-06T07:39:57.259Z,65.34
2018-09-06T07:40:57.251Z,63.75
2018-09-06T07:41:57.248Z,62.46
2018-09-06T07:42:57.241Z,62.10
2018-09-06T07:43:57.238Z,61.46
2018-09-06T07:44:57.224Z,60.91
2018-09-06T07:45:57.225Z,61.10
2018-09-06T07:46:57.292Z,60.78
2018-09-06T07:47:57.203Z,62.37
2018-09-06T07:48:57.193Z,63.34
2018-09-06T07:49:57.212Z,64.89
2018-09-06T07:50:57.186Z,65.34
2018-09-06T07:51:57.173Z,65.43
2018-09-06T07:52:57.167Z,65.20
2018-09-06T07:53:57.158Z,66.08
2018-09-06T07:54:57.149Z,65.98
2018-09-06T07:55:57.154Z,66.82
2018-09-06T07:56:57.137Z,67.79
2018-09-06T07:57:57.126Z,68.37
2018-09-06T07:58:57.117Z,68.91
2018-09-06T07:59:57.116Z,69.74
2018-09-06T08:00:57.104Z,70.52
2018-09-06T08:01:57.099Z,70.62
2018-09-06T08:02:57.082Z,71.39
2018-09-06T08:03:57.076Z,71.48
2018-09-06T08:04:57.072Z,72.26
2018-09-06T08:05:57.058Z,71.88
2018-09-06T08:06:57.053Z,71.48
2018-09-06T08:07:57.045Z,72.16
2018-09-06T08:08:57.032Z,71.88
2018-09-06T08:09:57.022Z,72.16
2018-09-06T08:10:57.013Z,72.06
2018-09-06T08:11:57.006Z,72.64
2018-09-06T08:12:56.996Z,72.36
2018-09-06T08:13:56.993Z,72.45
2018-09-06T08:14:56.977Z,73.42
2018-09-06T08:15:56.968Z,73.32
2018-09-06T08:16:56.957Z,73.52
2018-09-06T08:17:56.948Z,73.13
2018-09-06T08:18:57.016Z,73.32
2018-09-06T08:19:56.929Z,73.80
2018-09-06T08:20:56.920Z,73.22
2018-09-06T08:21:56.920Z,72.52
2018-09-06T08:22:56.902Z,73.28
2018-09-06T08:23:56.899Z,73.67
2018-09-06T08:24:56.882Z,74.06
2018-09-06T08:25:56.872Z,73.77
2018-09-06T08:26:56.861Z,74.06
2018-09-06T08:27:56.851Z,74.83
2018-09-06T08:28:56.842Z,73.67
2018-09-06T08:29:56.861Z,74.25
2018-09-06T08:30:56.925Z,74.93
2018-09-06T08:31:56.817Z,75.02
2018-09-06T08:32:56.803Z,76.28
2018-09-06T08:33:56.797Z,75.67
2018-09-06T08:34:56.785Z,76.15
2018-09-06T08:35:56.774Z,77.21
2018-09-06T08:36:56.812Z,77.01
2018-09-06T08:37:56.757Z,77.53
2018-09-06T08:38:56.746Z,78.31
2018-09-06T08:39:56.759Z,78.11
2018-09-06T08:40:56.727Z,77.73
2018-09-06T08:41:56.716Z,77.63
2018-09-06T08:42:56.706Z,77.73
2018-09-06T08:43:56.696Z,77.63
2018-09-06T08:44:56.685Z,77.83
2018-09-06T08:45:56.675Z,78.31
2018-09-06T08:46:56.665Z,78.15
2018-09-06T08:47:56.664Z,79.12
2018-09-06T08:48:56.651Z,80.38
2018-09-06T08:49:56.645Z,80.24
2018-09-06T08:50:56.626Z,79.66
2018-09-06T08:51:56.656Z,79.47
2018-09-06T08:52:56.613Z,79.17
2018-09-06T08:53:56.601Z,78.21
2018-09-06T08:54:56.586Z,78.31
2018-09-06T08:55:56.578Z,79.66
2018-09-06T08:56:56.568Z,80.82
2018-09-06T08:57:56.561Z,81.20
2018-09-06T08:58:56.556Z,81.20
2018-09-06T08:59:56.538Z,82.46
2018-09-06T09:00:56.532Z,82.46
2018-09-06T09:01:56.521Z,81.11
2018-09-06T09:02:56.710Z,79.66
2018-09-06T09:03:56.503Z,79.66
2018-09-06T09:04:56.490Z,80.72
2018-09-06T09:05:56.500Z,80.72
2018-09-06T09:06:56.471Z,80.62
2018-09-06T09:07:56.462Z,80.72
2018-09-06T09:08:56.454Z,81.40
2018-09-06T09:09:56.442Z,82.17
2018-09-06T09:10:56.483Z,80.33
2018-09-06T09:11:56.419Z,80.62
2018-09-06T09:12:56.427Z,80.82
2018-09-06T09:13:56.400Z,79.56
2018-09-06T09:14:56.392Z,79.08
2018-09-06T09:15:56.390Z,79.08
2018-09-06T09:16:56.402Z,80.14
2018-09-06T09:17:56.356Z,79.85
2018-09-06T09:18:56.346Z,80.05
2018-09-06T09:19:56.341Z,79.66
2018-09-06T09:20:56.336Z,81.11
2018-09-06T09:21:56.391Z,79.41
2018-09-06T09:22:56.318Z,79.89
2018-09-06T09:23:56.302Z,79.22
2018-09-06T09:24:56.290Z,77.96
2018-09-06T09:25:56.279Z,79.47
2018-09-06T09:26:56.268Z,78.15
2018-09-06T09:27:56.260Z,78.11
2018-09-06T09:28:56.250Z,78.11
2018-09-06T09:29:56.245Z,78.15
2018-09-06T09:30:56.233Z,77.48
2018-09-06T09:31:56.223Z,77.57
2018-09-06T09:32:56.206Z,77.57
2018-09-06T09:33:56.198Z,77.83
2018-09-06T09:34:56.188Z,78.06
2018-09-06T09:35:56.185Z,77.92
2018-09-06T09:36:56.168Z,77.96
2018-09-06T09:37:56.160Z,77.92
2018-09-06T09:38:56.150Z,76.76
2018-09-06T09:39:56.145Z,76.47
2018-09-06T09:40:56.129Z,74.83
2018-09-06T09:41:56.124Z,75.31
2018-09-06T09:42:56.112Z,76.09
2018-09-06T09:43:56.100Z,76.76
2018-09-06T09:44:56.088Z,77.44
2018-09-06T09:47:54.484Z,77.44
2018-09-06T09:49:33.993Z,75.76
2018-09-06T09:51:13.415Z,76.15
2018-09-06T09:52:13.388Z,77.30
2018-09-06T09:53:13.380Z,76.47
2018-09-06T09:54:13.457Z,77.01
2018-09-06T09:55:13.362Z,76.09
2018-09-06T09:56:13.351Z,77.11
2018-09-06T09:57:13.339Z,77.50
2018-09-06T09:58:13.338Z,78.69
2018-09-06T09:59:13.321Z,79.62
2018-09-06T10:00:13.310Z,79.43
2018-09-06T10:01:13.300Z,80.78
2018-09-06T10:02:13.289Z,81.26
2018-09-06T10:03:13.278Z,81.84
2018-09-06T10:04:13.264Z,83.19
2018-09-06T10:05:13.258Z,82.61
2018-09-06T10:06:13.251Z,81.93
2018-09-06T10:07:13.238Z,81.45
2018-09-06T10:08:13.227Z,81.84
2018-09-06T10:09:13.218Z,82.61
2018-09-06T10:10:13.210Z,82.71
2018-09-06T10:11:13.201Z,82.81
2018-09-06T10:12:13.190Z,82.42
2018-09-06T10:13:13.181Z,82.28
2018-09-06T10:14:13.162Z,83.00
2018-09-06T10:15:13.149Z,83.58
2018-09-06T10:16:13.140Z,84.74
2018-09-06T10:17:13.133Z,84.50
2018-09-06T10:18:13.143Z,85.41
2018-09-06T10:19:13.111Z,86.52
2018-09-06T10:20:13.098Z,86.14
2018-09-06T10:21:13.092Z,86.52
2018-09-06T10:22:13.077Z,87.59
2018-09-06T10:23:13.068Z,87.01
2018-09-06T10:24:13.056Z,88.17
2018-09-06T10:25:13.049Z,89.51
2018-09-06T10:26:13.036Z,90.19
2018-09-06T10:27:13.028Z,90.87
2018-09-06T10:28:13.014Z,91.20
2018-09-06T10:29:13.005Z,92.46
2018-09-06T10:30:12.997Z,92.41
2018-09-06T10:31:12.985Z,91.93
2018-09-06T10:32:12.978Z,92.16
2018-09-06T10:33:12.962Z,92.07
2018-09-06T10:34:12.951Z,92.16
2018-09-06T10:35:12.996Z,92.16
2018-09-06T10:36:12.933Z,91.88
2018-09-06T10:37:12.921Z,91.49
2018-09-06T10:38:12.912Z,90.72
2018-09-06T10:39:12.910Z,91.30
2018-09-06T10:40:12.892Z,91.49
2018-09-06T10:41:12.882Z,91.59
2018-09-06T10:42:12.872Z,90.14
2018-09-06T10:43:12.860Z,90.33
2018-09-06T10:44:12.849Z,90.91
2018-09-06T10:45:12.836Z,91.78
2018-09-06T10:46:12.827Z,91.74
2018-09-06T10:47:12.818Z,91.74
2018-09-06T10:48:12.808Z,92.50
2018-09-06T10:49:12.796Z,92.60
2018-09-06T10:50:12.785Z,93.18
2018-09-06T10:51:12.775Z,93.66
2018-09-06T10:52:12.764Z,95.50
2018-09-06T10:53:12.753Z,96.70
2018-09-06T10:54:12.742Z,97.72
2018-09-06T10:55:12.735Z,98.58
2018-09-06T10:56:12.729Z,98.58
2018-09-06T10:57:12.711Z,98.68
2018-09-06T10:58:12.699Z,98.58
2018-09-06T10:59:12.703Z,98.87
2018-09-06T11:00:12.684Z,98.39
2018-09-06T11:01:12.669Z,98.49
2018-09-06T11:02:12.657Z,98.49
2018-09-06T11:03:12.647Z,98.20
2018-09-06T11:04:12.638Z,98.49
2018-09-06T11:05:12.633Z,98.29
2018-09-06T11:06:12.627Z,98.10
2018-09-06T11:07:12.604Z,98.58
2018-09-06T11:08:12.681Z,98.58
2018-09-06T11:09:12.586Z,98.20
2018-09-06T11:10:12.571Z,98.54
2018-09-06T11:11:12.559Z,99.50
2018-09-06T11:12:12.552Z,98.92
2018-09-06T11:13:12.538Z,99.30
2018-09-06T11:14:12.528Z,99.11
2018-09-06T11:15:12.520Z,99.69
2018-09-06T11:16:12.505Z,99.79
2018-09-06T11:17:12.497Z,99.99
2018-09-06T11:18:12.496Z,99.99
2018-09-06T11:19:12.473Z,99.69
2018-09-06T11:20:12.460Z,99.69
2018-09-06T11:21:12.534Z,99.99
2018-09-06T11:22:12.809Z,99.99
2018-09-06T11:23:12.431Z,99.99
2018-09-06T11:24:12.418Z,99.99
2018-09-06T11:25:12.410Z,99.99
2018-09-06T11:26:12.393Z,99.99
2018-09-06T11:27:12.385Z,99.99
2018-09-06T11:28:12.375Z,99.99
2018-09-06T11:29:12.397Z,99.99
2018-09-06T11:30:12.350Z,99.99
2018-09-06T11:31:12.337Z,99.99
2018-09-06T11:32:12.332Z,99.99
2018-09-06T11:33:12.331Z,99.99
2018-09-06T11:34:12.305Z,99.99
2018-09-06T11:35:12.313Z,99.99
2018-09-06T11:36:12.283Z,99.99
2018-09-06T11:37:12.270Z,99.99
2018-09-06T11:38:12.318Z,99.99
2018-09-06T11:39:12.248Z,99.99
2018-09-06T11:40:12.345Z,99.99
2018-09-06T11:41:12.224Z,99.99
2018-09-06T11:42:12.335Z,99.99
2018-09-06T11:43:12.204Z,99.99
2018-09-06T11:44:12.191Z,99.99
2018-09-06T11:45:12.187Z,99.99
2018-09-06T11:46:12.169Z,99.99
2018-09-06T11:47:12.231Z,99.99
2018-09-06T11:48:12.146Z,99.99
2018-09-06T11:49:12.133Z,99.99
2018-09-06T11:50:12.125Z,99.99
2018-09-06T11:51:12.110Z,99.99
2018-09-06T11:52:12.100Z,99.99
2018-09-06T11:53:12.092Z,99.99
2018-09-06T11:54:12.076Z,99.99
2018-09-06T11:55:12.066Z,99.99
2018-09-06T11:56:12.054Z,99.99
2018-09-06T11:57:12.045Z,99.99
2018-09-06T11:58:12.034Z,99.99
2018-09-06T11:59:12.029Z,99.99
2018-09-06T12:00:12.009Z,99.99
2018-09-06T12:01:11.999Z,99.99
2018-09-06T12:02:12.060Z,99.99
2018-09-06T12:03:11.973Z,99.99
2018-09-06T12:04:11.982Z,99.99
2018-09-06T12:05:11.951Z,99.99
2018-09-06T12:06:11.961Z,99.99
2018-09-06T12:07:11.924Z,99.99
2018-09-06T12:08:11.919Z,99.99
2018-09-06T12:09:11.905Z,99.99
2018-09-06T12:10:11.892Z,99.99
2018-09-06T12:11:11.882Z,99.99
2018-09-06T12:12:11.870Z,99.99
2018-09-06T12:13:11.859Z,99.99
2018-09-06T12:14:11.841Z,99.99
2018-09-06T12:15:11.833Z,99.99
2018-09-06T12:16:11.822Z,99.99
2018-09-06T12:17:11.807Z,99.99
2018-09-06T12:18:11.798Z,99.99
2018-09-06T12:19:11.796Z,99.99
2018-09-06T12:20:11.775Z,99.99
2018-09-06T12:21:11.762Z,99.99
2018-09-06T12:22:11.753Z,99.99
2018-09-06T12:23:11.754Z,99.99
2018-09-06T12:24:11.734Z,99.99
2018-09-06T12:25:11.730Z,99.99
2018-09-06T12:26:11.705Z,99.99
2018-09-06T12:27:11.692Z,99.99
2018-09-06T12:28:11.679Z,99.99
2018-09-06T12:29:11.673Z,99.99
2018-09-06T12:30:11.657Z,99.99
2018-09-06T12:31:11.653Z,99.99
2018-09-06T12:32:11.634Z,99.99
2018-09-06T12:33:11.674Z,99.99
2018-09-06T12:34:11.609Z,99.99
2018-09-06T12:35:11.600Z,99.99
2018-09-06T12:36:11.596Z,99.99
2018-09-06T12:37:11.575Z,99.99
2018-09-06T12:38:11.561Z,99.99
2018-09-06T12:39:11.550Z,99.99
2018-09-06T12:40:11.541Z,99.99
2018-09-06T12:41:11.528Z,99.99
2018-09-06T12:42:11.519Z,99.99
2018-09-06T12:43:11.508Z,99.99
2018-09-06T12:44:11.494Z,99.99
2018-09-06T12:45:11.482Z,99.99
2018-09-06T12:46:11.492Z,99.99
2018-09-06T12:47:11.457Z,99.99
2018-09-06T12:48:11.453Z,99.99
2018-09-06T12:49:11.434Z,99.99
2018-09-06T12:50:11.422Z,99.99
2018-09-06T12:51:11.412Z,99.99
2018-09-06T12:52:11.413Z,99.99
2018-09-06T12:53:11.398Z,99.99
2018-09-06T12:54:11.395Z,99.99
2018-09-06T12:55:11.364Z,99.99